Terminal Aerodrome Forecast
Issued by NWS Shreveport, LA

Home | Current Version | Previous Version | Text Only | Print | Product List | Glossary On
Versions: 1 2 3 4 5 6 7 8 9 10 11 12 13 14 15 16 17 18
000
FTUS44 KSHV 281100 RRA
TAFGGG
TAF
KGGG 281142Z 2812/0112 06005KT P6SM BKN040 OVC100
     FM282100 06006KT P6SM OVC040
     FM010200 06004KT P6SM VCSH OVC035
     FM010600 06004KT 4SM -RA BR OVC015=

USA.gov is the U.S. government's official web portal to all federal, state and local government web resources and services.